createdAt,value
2023-01-29T00:02:26.628Z,-6.163144
2023-01-29T00:07:29.856Z,-6.227488
2023-01-29T00:12:25.137Z,-6.270384
2023-01-29T00:17:28.508Z,-6.281108
2023-01-29T00:22:23.070Z,-6.281108
2023-01-29T00:27:26.875Z,-6.25966
2023-01-29T00:32:23.422Z,-6.216764
2023-01-29T00:37:26.612Z,-6.184592
2023-01-29T00:42:21.696Z,-6.109524
2023-01-29T00:47:25.549Z,-6.120248
2023-01-29T00:52:22.606Z,-6.088076
2023-01-29T00:57:25.712Z,-6.088076
2023-01-29T01:02:23.716Z,-6.120248
2023-01-29T01:07:21.842Z,-6.0988
2023-01-29T01:12:46.190Z,-6.109524
2023-01-29T01:17:42.093Z,-6.130972
2023-01-29T01:22:45.341Z,-6.0988
2023-01-29T01:27:45.314Z,-6.04518
2023-01-29T01:32:43.388Z,-6.013008
2023-01-29T01:37:40.975Z,-6.034456
2023-01-29T01:42:44.104Z,-6.04518
2023-01-29T01:47:41.056Z,-6.088076
2023-01-29T01:52:41.945Z,-6.173868
2023-01-29T01:57:39.026Z,-6.238212
2023-01-29T02:02:42.254Z,-6.173868
2023-01-29T02:07:39.254Z,-5.916492
2023-01-29T02:12:42.327Z,-5.841424
2023-01-29T02:17:37.995Z,-5.798528
2023-01-29T02:22:38.220Z,-5.77708
2023-01-29T02:27:40.959Z,-5.66984
2023-01-29T02:32:36.050Z,-5.66984
2023-01-29T02:37:39.489Z,-5.72346
2023-01-29T02:42:37.200Z,-5.744908
2023-01-29T02:47:34.853Z,-5.841424
2023-01-29T02:53:02.013Z,-5.927216
2023-01-29T02:58:08.273Z,-6.055904
2023-01-29T03:03:06.479Z,-6.120248
2023-01-29T03:08:03.861Z,-6.173868
2023-01-29T03:13:07.027Z,-6.141696
2023-01-29T03:18:04.006Z,-6.141696
2023-01-29T03:23:06.970Z,-6.088076
2023-01-29T03:28:03.602Z,-6.088076
2023-01-29T03:33:07.459Z,-6.088076
2023-01-29T03:38:05.580Z,-6.088076
2023-01-29T03:43:03.177Z,-5.99156
2023-01-29T03:48:07.566Z,-5.895044
2023-01-29T03:53:04.290Z,-5.66984
2023-01-29T03:58:15.283Z,-5.391016
2023-01-29T04:03:13.752Z,-5.13364
2023-01-29T04:08:11.617Z,-5.037124
2023-01-29T04:13:14.499Z,-4.951332
2023-01-29T04:18:10.219Z,-4.940608
2023-01-29T04:23:08.021Z,-4.822644
2023-01-29T04:28:07.077Z,-4.769024
2023-01-29T04:33:05.466Z,-4.70468
2023-01-29T04:38:08.627Z,-4.54382
2023-01-29T04:43:12.150Z,-4.318616
2023-01-29T04:48:11.105Z,-4.264996
2023-01-29T04:53:09.544Z,-4.018344
2023-01-29T04:58:11.995Z,-3.90038
2023-01-29T05:03:13.129Z,-3.911104
2023-01-29T05:08:15.549Z,-3.90038
2023-01-29T05:13:12.433Z,-3.84676
2023-01-29T05:18:11.632Z,-3.836036
2023-01-29T05:23:09.313Z,-3.79314
2023-01-29T05:28:14.442Z,-3.718072
2023-01-29T05:33:14.739Z,-3.653728
2023-01-29T05:38:13.827Z,-3.546488
2023-01-29T05:43:19.191Z,-3.428524
2023-01-29T05:48:21.676Z,-3.385628
2023-01-29T05:53:18.918Z,-3.332008
2023-01-29T05:58:22.648Z,-3.267664
2023-01-29T06:03:23.285Z,-3.224768
2023-01-29T06:08:21.487Z,-3.181872
2023-01-29T06:13:25.608Z,-3.181872
2023-01-29T06:18:22.533Z,-3.1497
2023-01-29T06:23:26.817Z,-3.085356
2023-01-29T06:28:23.653Z,-3.063908
2023-01-29T06:33:27.832Z,-3.031736
2023-01-29T06:38:26.633Z,-3.021012
2023-01-29T06:43:24.604Z,-2.999564
2023-01-29T06:48:27.729Z,-2.978116
2023-01-29T06:53:25.096Z,-2.956668
2023-01-29T06:58:29.574Z,-2.945944
2023-01-29T07:03:27.065Z,-2.903048
2023-01-29T07:08:30.269Z,-2.8816
2023-01-29T07:13:27.141Z,-2.860152
2023-01-29T07:18:30.396Z,-2.870876
2023-01-29T07:23:28.001Z,-2.806532
2023-01-29T07:28:28.123Z,-2.795808
2023-01-29T07:33:27.530Z,-2.752912
2023-01-29T07:38:25.079Z,-2.731464
2023-01-29T07:43:28.179Z,-2.710016
2023-01-29T07:48:26.901Z,-2.699292
2023-01-29T07:53:27.530Z,-2.699292
2023-01-29T07:58:25.808Z,-2.645672
2023-01-29T08:03:49.429Z,-2.624224
2023-01-29T08:08:49.145Z,-2.570604
2023-01-29T08:13:46.731Z,-2.484812
2023-01-29T08:18:50.820Z,-2.516984
2023-01-29T08:23:48.030Z,-2.45264
2023-01-29T08:29:15.483Z,-2.39902
2023-01-29T08:34:11.667Z,-2.356124
2023-01-29T08:39:14.734Z,-2.302504
2023-01-29T08:44:14.591Z,-2.281056
2023-01-29T08:49:35.893Z,-2.152368
2023-01-29T08:54:37.327Z,-2.0773
2023-01-29T08:59:35.386Z,-2.0773
2023-01-29T09:04:40.062Z,-2.098748
2023-01-29T09:10:00.635Z,-1.97006
2023-01-29T09:15:32.081Z,-2.012956
2023-01-29T09:21:15.712Z,-2.002232
2023-01-29T09:26:10.748Z,-1.884268
2023-01-29T09:31:19.898Z,-1.841372
2023-01-29T09:36:17.363Z,-1.830648
2023-01-29T09:41:45.109Z,-1.777028
2023-01-29T09:46:42.649Z,-1.70196
2023-01-29T09:51:48.468Z,-1.626892
2023-01-29T09:56:44.197Z,-1.466032
2023-01-29T10:01:56.586Z,-1.38024
2023-01-29T10:07:02.757Z,-1.32662
2023-01-29T10:12:23.223Z,-1.262276
2023-01-29T10:17:55.031Z,-1.240828
2023-01-29T10:22:51.498Z,-1.133588
2023-01-29T10:27:47.015Z,-1.133588
2023-01-29T10:33:13.846Z,-1.069244
2023-01-29T10:38:09.299Z,-1.037072
2023-01-29T10:43:24.092Z,-0.994176
2023-01-29T10:48:41.553Z,-0.854764
2023-01-29T10:53:40.868Z,-0.84404
2023-01-29T10:58:41.328Z,-0.822592
2023-01-29T11:03:38.708Z,-143.28
2023-01-29T11:08:31.174Z,-143.28
2023-01-29T11:13:24.533Z,-143.28
2023-01-29T11:18:17.633Z,-143.28
2023-01-29T11:23:12.758Z,-143.28
2023-01-29T11:28:05.856Z,-143.28
2023-01-29T11:33:10.007Z,-0.661732
2023-01-29T11:38:10.995Z,-0.608112
2023-01-29T11:43:12.313Z,-143.28
2023-01-29T11:48:36.265Z,-0.618836
2023-01-29T11:53:36.810Z,-0.62956
2023-01-29T11:58:28.334Z,-143.28
2023-01-29T12:03:51.548Z,-143.28
2023-01-29T12:08:40.222Z,-143.28
2023-01-29T12:13:38.527Z,-143.28
2023-01-29T12:18:43.655Z,-143.28
2023-01-29T12:24:01.311Z,-143.28
2023-01-29T12:28:49.499Z,-143.28
2023-01-29T12:33:57.640Z,-0.651008
2023-01-29T12:39:12.797Z,-143.28
2023-01-29T12:44:14.301Z,-0.543768
2023-01-29T12:49:14.129Z,-0.457976
2023-01-29T12:55:09.378Z,-143.28
2023-01-29T12:59:56.216Z,-143.28
2023-01-29T13:05:05.195Z,-143.28
2023-01-29T13:09:57.121Z,-143.28
2023-01-29T13:14:50.172Z,-143.28
2023-01-29T13:19:43.528Z,-143.28
2023-01-29T13:24:37.383Z,-143.28
2023-01-29T13:29:59.609Z,-0.586664
2023-01-29T13:34:53.894Z,-143.28
2023-01-29T13:39:51.779Z,-0.457976
2023-01-29T13:45:15.628Z,-0.404356
2023-01-29T13:50:39.518Z,-143.28
2023-01-29T13:55:51.326Z,-143.28
2023-01-29T14:00:47.027Z,-143.28
2023-01-29T14:05:41.631Z,-143.28
2023-01-29T14:11:02.090Z,-143.28
2023-01-29T14:15:50.167Z,-143.28
2023-01-29T14:20:45.940Z,-143.28
2023-01-29T14:25:45.884Z,-0.297116
2023-01-29T14:31:01.502Z,-143.28
2023-01-29T14:36:06.426Z,-0.297116
2023-01-29T14:41:04.272Z,-0.286392
2023-01-29T14:45:57.769Z,-143.28
2023-01-29T14:50:55.467Z,-143.28
2023-01-29T14:56:11.110Z,-143.28
2023-01-29T15:01:29.805Z,-143.28
2023-01-29T15:06:43.109Z,-143.28
2023-01-29T15:11:38.985Z,-143.28
2023-01-29T15:16:37.232Z,-143.28
2023-01-29T15:21:36.349Z,-0.382908
2023-01-29T15:26:28.693Z,-143.28
2023-01-29T15:31:35.048Z,-0.447252
2023-01-29T15:36:32.580Z,-0.41508
2023-01-29T15:42:29.874Z,-143.28
2023-01-29T15:47:18.624Z,-143.28
2023-01-29T15:53:09.044Z,-143.28
2023-01-29T15:57:58.075Z,-143.28
2023-01-29T16:03:14.539Z,-143.28
2023-01-29T16:08:09.393Z,-143.28
2023-01-29T16:13:00.334Z,-143.28
2023-01-29T16:18:28.809Z,-0.436528
2023-01-29T16:23:41.198Z,-0.372184
2023-01-29T16:28:41.924Z,-0.372184
2023-01-29T16:33:41.181Z,-0.382908
2023-01-29T16:39:43.090Z,-0.393632
2023-01-29T16:44:41.026Z,-0.404356
2023-01-29T16:50:06.237Z,-0.425804
2023-01-29T16:55:27.415Z,-0.404356
2023-01-29T17:01:20.889Z,-0.404356
2023-01-29T17:06:41.798Z,-0.264944
2023-01-29T17:11:59.548Z,-0.329288
2023-01-29T17:17:00.814Z,-0.30784
2023-01-29T17:21:57.985Z,-0.297116
2023-01-29T17:27:02.374Z,-0.318564
2023-01-29T17:32:03.766Z,-0.297116
2023-01-29T17:37:26.868Z,-0.275668
2023-01-29T17:44:44.356Z,-0.264944
2023-01-29T17:50:43.076Z,-0.179152
2023-01-29T17:55:42.396Z,-0.2006
2023-01-29T18:01:09.291Z,-0.25422
2023-01-29T18:06:14.664Z,-0.232772
2023-01-29T18:11:16.525Z,-0.243496
2023-01-29T18:16:17.971Z,-0.222048
2023-01-29T18:22:17.267Z,-0.179152
2023-01-29T18:27:40.913Z,-0.136256
2023-01-29T18:32:38.233Z,-0.125532
2023-01-29T18:37:37.590Z,-0.125532
2023-01-29T18:42:37.272Z,-0.14698
2023-01-29T18:48:01.605Z,-0.168428
2023-01-29T18:52:57.088Z,-0.157704
2023-01-29T18:58:35.107Z,-0.2006
2023-01-29T19:03:29.358Z,-0.211324
2023-01-29T19:08:37.110Z,-0.222048
2023-01-29T19:13:34.909Z,-0.243496
2023-01-29T19:18:45.789Z,-0.275668
2023-01-29T19:23:50.244Z,-0.264944
2023-01-29T19:29:47.570Z,-0.286392
2023-01-29T19:34:49.736Z,-0.297116
2023-01-29T19:40:13.963Z,-0.340012
2023-01-29T19:45:12.484Z,-0.350736
2023-01-29T19:50:41.647Z,-0.404356
2023-01-29T19:56:41.300Z,-0.404356
2023-01-29T20:01:36.798Z,-0.41508
2023-01-29T20:07:03.724Z,-0.4687
2023-01-29T20:12:00.238Z,-0.393632
2023-01-29T20:17:05.053Z,-0.436528
2023-01-29T20:22:01.549Z,-0.404356
2023-01-29T20:27:08.021Z,-0.372184
2023-01-29T20:32:04.570Z,-0.275668
2023-01-29T20:37:08.813Z,-0.232772
2023-01-29T20:42:06.754Z,-0.14698
2023-01-29T20:47:11.939Z,-0.114808
2023-01-29T20:52:09.524Z,-0.050464
2023-01-29T20:57:08.751Z,-0.071912
2023-01-29T21:02:35.741Z,0.035328
2023-01-29T21:07:32.683Z,0.078224
2023-01-29T21:12:36.786Z,0.164016
2023-01-29T21:17:33.429Z,0.185464
2023-01-29T21:23:33.482Z,0.196188
2023-01-29T21:29:05.446Z,0.260532
2023-01-29T21:34:12.392Z,0.239084
2023-01-29T21:39:35.352Z,0.249808
2023-01-29T21:44:56.185Z,0.28198
2023-01-29T21:49:54.900Z,0.3356
2023-01-29T21:54:57.934Z,0.3356
2023-01-29T22:00:02.214Z,0.357048
2023-01-29T22:05:24.097Z,0.357048
2023-01-29T22:10:25.973Z,0.38922
2023-01-29T22:15:31.625Z,0.432116
2023-01-29T22:20:35.271Z,0.410668
2023-01-29T22:25:41.477Z,0.453564
2023-01-29T22:31:58.197Z,0.485736
2023-01-29T22:37:01.870Z,0.582252
2023-01-29T22:42:05.679Z,0.582252
2023-01-29T22:47:25.201Z,0.625148
2023-01-29T22:52:27.928Z,0.646596
2023-01-29T22:57:31.398Z,0.614424
2023-01-29T23:02:42.775Z,0.678768
2023-01-29T23:07:45.483Z,0.678768
2023-01-29T23:12:49.333Z,0.65732
2023-01-29T23:17:52.776Z,0.635872
2023-01-29T23:22:56.852Z,0.635872
2023-01-29T23:28:52.058Z,0.65732
2023-01-29T23:33:46.140Z,0.721664
2023-01-29T23:38:56.674Z,0.721664
2023-01-29T23:44:17.313Z,0.71094
2023-01-29T23:49:19.982Z,0.796732
2023-01-29T23:54:50.288Z,0.807456
2023-01-29T23:59:47.158Z,0.861076
